< < Back
Terminal Aerodrome Forecast


Current Version              Previous Versions:   1  2  3  4  5  6  7  8  9  

Terminal Aerodrome Forecast

249
FTUS42 KGSP 241130
TAFAVL
TAF
KAVL 241130Z 2412/2512 35005KT P6SM BKN170
     FM250000 00000KT P6SM SKC
     FM250900 34004KT 3SM BR SKC=



Latest METAR

505
SAUS70 KWBC 251158
MTRAVL
METAR KAVL 251154Z 00000KT 10SM CLR 04/02 A3010 RMK AO2 SLP187 T00390017
10078 20039 51012


USA.gov is the U.S. government's official web portal to all federal, state and local government web resources and services.